sensor_id;sensor_type;location;lat;lon;timestamp;temperature;humidity
2749;DHT22;1382;52.142;11.618;2024-03-23T00:57:53;13.80;56.60
2749;DHT22;1382;52.142;11.618;2024-03-23T01:03:42;13.60;56.90
2749;DHT22;1382;52.142;11.618;2024-03-23T01:06:45;13.60;57.00
2749;DHT22;1382;52.142;11.618;2024-03-23T01:13:24;13.60;57.20
2749;DHT22;1382;52.142;11.618;2024-03-23T01:19:19;13.50;56.90
2749;DHT22;1382;52.142;11.618;2024-03-23T01:25:15;13.60;57.20
2749;DHT22;1382;52.142;11.618;2024-03-23T01:34:50;13.50;57.20
2749;DHT22;1382;52.142;11.618;2024-03-23T01:37:45;13.50;57.40
2749;DHT22;1382;52.142;11.618;2024-03-23T01:40:45;13.60;57.50
2749;DHT22;1382;52.142;11.618;2024-03-23T01:43:23;13.30;57.40
2749;DHT22;1382;52.142;11.618;2024-03-23T01:46:54;13.40;57.60
2749;DHT22;1382;52.142;11.618;2024-03-23T01:52:55;13.50;58.20
2749;DHT22;1382;52.142;11.618;2024-03-23T01:55:53;13.20;57.30
2749;DHT22;1382;52.142;11.618;2024-03-23T01:58:24;13.40;57.40
2749;DHT22;1382;52.142;11.618;2024-03-23T02:01:12;13.40;57.20
2749;DHT22;1382;52.142;11.618;2024-03-23T02:04:05;13.50;57.20
2749;DHT22;1382;52.142;11.618;2024-03-23T02:07:20;13.30;56.80
2749;DHT22;1382;52.142;11.618;2024-03-23T02:10:37;13.40;56.50
2749;DHT22;1382;52.142;11.618;2024-03-23T02:14:00;13.50;56.60
2749;DHT22;1382;52.142;11.618;2024-03-23T02:17:02;13.30;56.60
2749;DHT22;1382;52.142;11.618;2024-03-23T02:19:55;13.30;56.40
2749;DHT22;1382;52.142;11.618;2024-03-23T02:23:01;13.30;56.50
2749;DHT22;1382;52.142;11.618;2024-03-23T02:26:25;13.30;56.50
2749;DHT22;1382;52.142;11.618;2024-03-23T02:35:48;13.10;56.20
2749;DHT22;1382;52.142;11.618;2024-03-23T02:38:46;13.30;56.40
2749;DHT22;1382;52.142;11.618;2024-03-23T02:41:52;12.70;56.10
2749;DHT22;1382;52.142;11.618;2024-03-23T02:47:56;13.10;56.40
2749;DHT22;1382;52.142;11.618;2024-03-23T02:53:29;13.00;56.40
2749;DHT22;1382;52.142;11.618;2024-03-23T03:16:43;12.90;55.80
2749;DHT22;1382;52.142;11.618;2024-03-23T03:22:43;12.70;55.90
2749;DHT22;1382;52.142;11.618;2024-03-23T03:25:40;12.90;56.10
2749;DHT22;1382;52.142;11.618;2024-03-23T03:29:21;12.80;56.20
2749;DHT22;1382;52.142;11.618;2024-03-23T03:39:03;12.80;55.90
2749;DHT22;1382;52.142;11.618;2024-03-23T03:42:29;12.80;55.80
2749;DHT22;1382;52.142;11.618;2024-03-23T03:45:35;12.70;55.80
2749;DHT22;1382;52.142;11.618;2024-03-23T03:48:08;12.60;55.80
2749;DHT22;1382;52.142;11.618;2024-03-23T04:14:17;12.40;55.80
2749;DHT22;1382;52.142;11.618;2024-03-23T04:17:06;12.50;56.00
2749;DHT22;1382;52.142;11.618;2024-03-23T04:22:52;12.50;56.10
2749;DHT22;1382;52.142;11.618;2024-03-23T04:28:50;12.40;55.90
2749;DHT22;1382;52.142;11.618;2024-03-23T04:34:59;12.30;56.00
2749;DHT22;1382;52.142;11.618;2024-03-23T04:44:10;12.50;56.20
2749;DHT22;1382;52.142;11.618;2024-03-23T04:47:10;12.40;56.50
2749;DHT22;1382;52.142;11.618;2024-03-23T04:57:32;12.30;56.30
2749;DHT22;1382;52.142;11.618;2024-03-23T05:00:45;12.10;56.60
2749;DHT22;1382;52.142;11.618;2024-03-23T05:04:08;12.20;56.60
2749;DHT22;1382;52.142;11.618;2024-03-23T05:07:05;12.10;56.50
2749;DHT22;1382;52.142;11.618;2024-03-23T05:13:58;12.10;56.70
2749;DHT22;1382;52.142;11.618;2024-03-23T05:17:01;12.20;56.80
2749;DHT22;1382;52.142;11.618;2024-03-23T05:19:38;12.20;56.80
2749;DHT22;1382;52.142;11.618;2024-03-23T05:25:41;12.20;56.60
2749;DHT22;1382;52.142;11.618;2024-03-23T05:32:09;12.10;56.40
2749;DHT22;1382;52.142;11.618;2024-03-23T05:35:32;12.10;56.30
2749;DHT22;1382;52.142;11.618;2024-03-23T05:38:53;12.00;56.30
2749;DHT22;1382;52.142;11.618;2024-03-23T05:45:25;12.10;56.10
2749;DHT22;1382;52.142;11.618;2024-03-23T05:48:38;11.80;56.30
2749;DHT22;1382;52.142;11.618;2024-03-23T05:57:58;11.90;56.60
2749;DHT22;1382;52.142;11.618;2024-03-23T06:03:40;12.10;56.70
2749;DHT22;1382;52.142;11.618;2024-03-23T06:06:07;11.70;56.20
2749;DHT22;1382;52.142;11.618;2024-03-23T06:08:32;11.80;56.50
2749;DHT22;1382;52.142;11.618;2024-03-23T06:10:58;11.80;56.40
2749;DHT22;1382;52.142;11.618;2024-03-23T06:13:24;11.80;56.40
2749;DHT22;1382;52.142;11.618;2024-03-23T06:15:50;11.80;56.40
2749;DHT22;1382;52.142;11.618;2024-03-23T06:18:16;11.80;56.40
2749;DHT22;1382;52.142;11.618;2024-03-23T06:20:43;12.00;56.60
2749;DHT22;1382;52.142;11.618;2024-03-23T06:23:09;11.80;56.30
2749;DHT22;1382;52.142;11.618;2024-03-23T06:25:35;11.90;56.50
2749;DHT22;1382;52.142;11.618;2024-03-23T06:28:00;11.80;56.40
2749;DHT22;1382;52.142;11.618;2024-03-23T06:30:26;11.90;56.60
2749;DHT22;1382;52.142;11.618;2024-03-23T06:32:52;11.80;56.50
2749;DHT22;1382;52.142;11.618;2024-03-23T06:35:18;11.90;56.60
2749;DHT22;1382;52.142;11.618;2024-03-23T06:37:45;11.80;56.60
2749;DHT22;1382;52.142;11.618;2024-03-23T06:40:11;11.80;56.60
2749;DHT22;1382;52.142;11.618;2024-03-23T06:42:37;11.80;56.60
2749;DHT22;1382;52.142;11.618;2024-03-23T06:45:03;11.80;56.60
2749;DHT22;1382;52.142;11.618;2024-03-23T06:47:29;11.80;56.40
2749;DHT22;1382;52.142;11.618;2024-03-23T06:49:55;11.60;56.50
2749;DHT22;1382;52.142;11.618;2024-03-23T06:52:21;11.80;56.70
2749;DHT22;1382;52.142;11.618;2024-03-23T06:54:48;11.70;56.60
2749;DHT22;1382;52.142;11.618;2024-03-23T06:57:14;11.80;56.80
2749;DHT22;1382;52.142;11.618;2024-03-23T06:59:40;11.70;56.70
2749;DHT22;1382;52.142;11.618;2024-03-23T07:02:06;11.70;56.70
2749;DHT22;1382;52.142;11.618;2024-03-23T07:04:32;11.70;56.70
2749;DHT22;1382;52.142;11.618;2024-03-23T07:06:57;11.70;56.90
2749;DHT22;1382;52.142;11.618;2024-03-23T07:09:23;11.60;57.00
2749;DHT22;1382;52.142;11.618;2024-03-23T07:11:50;11.60;57.00
2749;DHT22;1382;52.142;11.618;2024-03-23T07:14:16;11.60;57.20
2749;DHT22;1382;52.142;11.618;2024-03-23T07:16:42;11.70;57.20
2749;DHT22;1382;52.142;11.618;2024-03-23T07:19:08;11.50;57.00
2749;DHT22;1382;52.142;11.618;2024-03-23T07:21:34;11.50;56.90
2749;DHT22;1382;52.142;11.618;2024-03-23T07:24:00;11.50;56.80
2749;DHT22;1382;52.142;11.618;2024-03-23T07:26:25;11.40;56.70
2749;DHT22;1382;52.142;11.618;2024-03-23T07:28:53;11.40;56.80
2749;DHT22;1382;52.142;11.618;2024-03-23T07:31:18;11.50;56.80
2749;DHT22;1382;52.142;11.618;2024-03-23T07:33:46;11.40;56.70
2749;DHT22;1382;52.142;11.618;2024-03-23T07:36:12;11.40;56.60
2749;DHT22;1382;52.142;11.618;2024-03-23T07:38:40;11.30;56.40
2749;DHT22;1382;52.142;11.618;2024-03-23T07:41:07;11.30;56.30
2749;DHT22;1382;52.142;11.618;2024-03-23T07:43:33;11.20;56.50
2749;DHT22;1382;52.142;11.618;2024-03-23T07:46:01;11.20;56.60
2749;DHT22;1382;52.142;11.618;2024-03-23T07:48:28;11.30;56.60
2749;DHT22;1382;52.142;11.618;2024-03-23T07:51:00;11.30;56.50
2749;DHT22;1382;52.142;11.618;2024-03-23T07:53:27;11.30;56.50
2749;DHT22;1382;52.142;11.618;2024-03-23T07:55:55;11.30;56.60
2749;DHT22;1382;52.142;11.618;2024-03-23T07:58:21;11.30;56.40
2749;DHT22;1382;52.142;11.618;2024-03-23T08:00:47;11.30;56.40
2749;DHT22;1382;52.142;11.618;2024-03-23T08:03:14;11.30;56.50
2749;DHT22;1382;52.142;11.618;2024-03-23T08:05:40;11.30;56.50
2749;DHT22;1382;52.142;11.618;2024-03-23T08:08:06;11.20;56.40
2749;DHT22;1382;52.142;11.618;2024-03-23T08:10:32;11.20;56.40
2749;DHT22;1382;52.142;11.618;2024-03-23T08:12:58;11.20;56.20
2749;DHT22;1382;52.142;11.618;2024-03-23T08:15:24;11.20;56.10
2749;DHT22;1382;52.142;11.618;2024-03-23T08:17:50;11.10;56.10
2749;DHT22;1382;52.142;11.618;2024-03-23T08:20:17;11.10;56.20
2749;DHT22;1382;52.142;11.618;2024-03-23T08:22:43;11.10;56.20
2749;DHT22;1382;52.142;11.618;2024-03-23T08:25:09;11.10;56.30
2749;DHT22;1382;52.142;11.618;2024-03-23T08:27:34;11.10;56.20
2749;DHT22;1382;52.142;11.618;2024-03-23T08:30:00;11.10;56.40
2749;DHT22;1382;52.142;11.618;2024-03-23T08:32:26;11.10;56.50
2749;DHT22;1382;52.142;11.618;2024-03-23T08:34:52;11.00;56.40
2749;DHT22;1382;52.142;11.618;2024-03-23T08:37:19;11.00;57.10
2749;DHT22;1382;52.142;11.618;2024-03-23T08:39:45;11.00;56.50
2749;DHT22;1382;52.142;11.618;2024-03-23T08:42:11;11.00;56.60
2749;DHT22;1382;52.142;11.618;2024-03-23T08:44:37;11.00;56.60
2749;DHT22;1382;52.142;11.618;2024-03-23T08:47:03;11.10;56.80
2749;DHT22;1382;52.142;11.618;2024-03-23T08:49:29;11.10;56.70
2749;DHT22;1382;52.142;11.618;2024-03-23T08:51:55;11.10;56.50
2749;DHT22;1382;52.142;11.618;2024-03-23T08:54:22;11.00;55.40
2749;DHT22;1382;52.142;11.618;2024-03-23T08:56:48;10.90;55.40
2749;DHT22;1382;52.142;11.618;2024-03-23T08:59:14;10.90;55.80
2749;DHT22;1382;52.142;11.618;2024-03-23T09:01:39;10.90;56.40
2749;DHT22;1382;52.142;11.618;2024-03-23T09:04:05;10.90;55.60
2749;DHT22;1382;52.142;11.618;2024-03-23T09:06:31;10.90;55.70
2749;DHT22;1382;52.142;11.618;2024-03-23T09:08:57;11.00;55.80
2749;DHT22;1382;52.142;11.618;2024-03-23T09:11:24;11.00;55.90
2749;DHT22;1382;52.142;11.618;2024-03-23T09:13:50;11.10;55.90
2749;DHT22;1382;52.142;11.618;2024-03-23T09:16:16;11.10;55.90
2749;DHT22;1382;52.142;11.618;2024-03-23T09:18:42;11.10;55.80
2749;DHT22;1382;52.142;11.618;2024-03-23T09:21:11;11.20;55.80
2749;DHT22;1382;52.142;11.618;2024-03-23T09:23:37;11.20;55.60
2749;DHT22;1382;52.142;11.618;2024-03-23T09:26:03;11.30;55.60
2749;DHT22;1382;52.142;11.618;2024-03-23T09:28:31;11.30;55.50
2749;DHT22;1382;52.142;11.618;2024-03-23T09:31:02;11.30;55.50
2749;DHT22;1382;52.142;11.618;2024-03-23T09:33:28;11.30;55.40
2749;DHT22;1382;52.142;11.618;2024-03-23T09:35:54;11.30;55.40
2749;DHT22;1382;52.142;11.618;2024-03-23T09:38:19;11.30;55.40
2749;DHT22;1382;52.142;11.618;2024-03-23T09:40:45;11.40;55.50
2749;DHT22;1382;52.142;11.618;2024-03-23T09:43:13;11.40;55.40
2749;DHT22;1382;52.142;11.618;2024-03-23T09:45:41;11.30;55.30
2749;DHT22;1382;52.142;11.618;2024-03-23T09:48:08;11.40;55.30
2749;DHT22;1382;52.142;11.618;2024-03-23T09:50:36;11.40;55.40
2749;DHT22;1382;52.142;11.618;2024-03-23T09:53:02;11.40;55.30
2749;DHT22;1382;52.142;11.618;2024-03-23T09:55:28;11.40;55.30
2749;DHT22;1382;52.142;11.618;2024-03-23T09:57:54;11.40;55.40
2749;DHT22;1382;52.142;11.618;2024-03-23T10:00:20;11.50;55.40
2749;DHT22;1382;52.142;11.618;2024-03-23T10:02:47;11.50;55.40
2749;DHT22;1382;52.142;11.618;2024-03-23T10:05:22;11.40;55.10
2749;DHT22;1382;52.142;11.618;2024-03-23T10:07:49;11.50;55.10
2749;DHT22;1382;52.142;11.618;2024-03-23T10:10:16;11.50;55.20
2749;DHT22;1382;52.142;11.618;2024-03-23T10:12:44;11.50;55.30
2749;DHT22;1382;52.142;11.618;2024-03-23T10:15:17;11.50;55.20
2749;DHT22;1382;52.142;11.618;2024-03-23T10:17:43;11.60;55.40
2749;DHT22;1382;52.142;11.618;2024-03-23T10:20:11;11.60;55.30
2749;DHT22;1382;52.142;11.618;2024-03-23T10:22:37;11.70;55.30
2749;DHT22;1382;52.142;11.618;2024-03-23T10:25:07;11.70;55.30
2749;DHT22;1382;52.142;11.618;2024-03-23T10:27:33;11.80;55.30
2749;DHT22;1382;52.142;11.618;2024-03-23T10:30:08;11.80;55.20
2749;DHT22;1382;52.142;11.618;2024-03-23T10:32:34;11.90;55.00
2749;DHT22;1382;52.142;11.618;2024-03-23T10:35:15;11.90;55.00
2749;DHT22;1382;52.142;11.618;2024-03-23T10:37:42;12.00;54.80
2749;DHT22;1382;52.142;11.618;2024-03-23T10:40:10;12.00;54.90
2749;DHT22;1382;52.142;11.618;2024-03-23T10:42:37;12.00;54.60
2749;DHT22;1382;52.142;11.618;2024-03-23T10:45:05;12.00;54.60
2749;DHT22;1382;52.142;11.618;2024-03-23T10:47:31;12.10;54.60
2749;DHT22;1382;52.142;11.618;2024-03-23T10:49:57;12.10;54.60
2749;DHT22;1382;52.142;11.618;2024-03-23T10:52:24;12.10;54.30
2749;DHT22;1382;52.142;11.618;2024-03-23T10:54:51;12.10;54.20
2749;DHT22;1382;52.142;11.618;2024-03-23T10:57:20;12.20;54.30
2749;DHT22;1382;52.142;11.618;2024-03-23T10:59:47;12.20;54.50
2749;DHT22;1382;52.142;11.618;2024-03-23T11:02:19;12.20;54.50
2749;DHT22;1382;52.142;11.618;2024-03-23T11:04:45;12.30;54.50
2749;DHT22;1382;52.142;11.618;2024-03-23T11:07:30;12.20;53.80
2749;DHT22;1382;52.142;11.618;2024-03-23T11:09:57;12.20;53.00
2749;DHT22;1382;52.142;11.618;2024-03-23T11:12:32;12.10;53.10
2749;DHT22;1382;52.142;11.618;2024-03-23T11:15:00;12.10;52.90
2749;DHT22;1382;52.142;11.618;2024-03-23T11:17:27;12.00;51.90
2749;DHT22;1382;52.142;11.618;2024-03-23T11:19:53;11.80;51.80
2749;DHT22;1382;52.142;11.618;2024-03-23T11:22:39;11.70;52.50
2749;DHT22;1382;52.142;11.618;2024-03-23T11:25:16;11.70;53.00
2749;DHT22;1382;52.142;11.618;2024-03-23T11:27:43;11.60;53.40
2749;DHT22;1382;52.142;11.618;2024-03-23T11:30:13;11.60;53.80
2749;DHT22;1382;52.142;11.618;2024-03-23T11:32:40;11.70;54.00
2749;DHT22;1382;52.142;11.618;2024-03-23T11:35:06;11.60;54.00
2749;DHT22;1382;52.142;11.618;2024-03-23T11:37:32;11.70;54.40
2749;DHT22;1382;52.142;11.618;2024-03-23T11:39:59;11.70;54.10
2749;DHT22;1382;52.142;11.618;2024-03-23T11:42:25;11.70;54.40
2749;DHT22;1382;52.142;11.618;2024-03-23T11:44:51;11.80;54.60
2749;DHT22;1382;52.142;11.618;2024-03-23T11:47:17;11.80;54.60
2749;DHT22;1382;52.142;11.618;2024-03-23T11:49:43;11.90;54.80
2749;DHT22;1382;52.142;11.618;2024-03-23T11:52:09;12.00;55.00
2749;DHT22;1382;52.142;11.618;2024-03-23T11:54:35;12.10;55.00
2749;DHT22;1382;52.142;11.618;2024-03-23T11:57:04;12.30;55.00
2749;DHT22;1382;52.142;11.618;2024-03-23T11:59:31;12.30;55.00
2749;DHT22;1382;52.142;11.618;2024-03-23T12:01:57;12.40;54.90
2749;DHT22;1382;52.142;11.618;2024-03-23T12:04:26;12.40;54.90
2749;DHT22;1382;52.142;11.618;2024-03-23T12:07:09;12.50;54.80
2749;DHT22;1382;52.142;11.618;2024-03-23T12:09:35;12.50;52.30
2749;DHT22;1382;52.142;11.618;2024-03-23T12:12:08;12.40;50.70
2749;DHT22;1382;52.142;11.618;2024-03-23T12:14:33;12.50;51.10
2749;DHT22;1382;52.142;11.618;2024-03-23T12:17:08;12.60;52.20
2749;DHT22;1382;52.142;11.618;2024-03-23T12:19:34;12.70;51.90
2749;DHT22;1382;52.142;11.618;2024-03-23T12:22:00;12.70;52.40
2749;DHT22;1382;52.142;11.618;2024-03-23T12:24:25;12.80;53.20
2749;DHT22;1382;52.142;11.618;2024-03-23T12:26:51;12.90;52.70
2749;DHT22;1382;52.142;11.618;2024-03-23T12:29:18;13.00;52.70
2749;DHT22;1382;52.142;11.618;2024-03-23T12:31:44;13.10;52.40
2749;DHT22;1382;52.142;11.618;2024-03-23T12:34:10;13.10;52.80
2749;DHT22;1382;52.142;11.618;2024-03-23T12:36:36;13.10;53.10
2749;DHT22;1382;52.142;11.618;2024-03-23T12:39:02;13.20;53.00
2749;DHT22;1382;52.142;11.618;2024-03-23T12:41:27;13.20;52.80
2749;DHT22;1382;52.142;11.618;2024-03-23T12:43:53;13.30;52.70
2749;DHT22;1382;52.142;11.618;2024-03-23T12:46:21;13.30;52.80
2749;DHT22;1382;52.142;11.618;2024-03-23T12:48:46;13.40;52.90
2749;DHT22;1382;52.142;11.618;2024-03-23T12:51:14;13.40;52.60
2749;DHT22;1382;52.142;11.618;2024-03-23T12:53:40;13.40;52.60
2749;DHT22;1382;52.142;11.618;2024-03-23T12:56:06;13.50;52.30
2749;DHT22;1382;52.142;11.618;2024-03-23T12:58:32;13.50;52.90
2749;DHT22;1382;52.142;11.618;2024-03-23T13:00:59;13.60;52.70
2749;DHT22;1382;52.142;11.618;2024-03-23T13:03:26;13.70;52.50
2749;DHT22;1382;52.142;11.618;2024-03-23T13:05:52;13.80;52.40
2749;DHT22;1382;52.142;11.618;2024-03-23T13:08:17;13.80;52.30
2749;DHT22;1382;52.142;11.618;2024-03-23T13:10:43;13.90;52.60
2749;DHT22;1382;52.142;11.618;2024-03-23T13:13:09;14.00;52.50
2749;DHT22;1382;52.142;11.618;2024-03-23T13:15:35;14.00;52.50
2749;DHT22;1382;52.142;11.618;2024-03-23T13:18:01;14.10;52.70
2749;DHT22;1382;52.142;11.618;2024-03-23T13:20:28;14.20;51.60
2749;DHT22;1382;52.142;11.618;2024-03-23T13:22:54;14.20;51.80
2749;DHT22;1382;52.142;11.618;2024-03-23T13:25:20;14.30;51.20
2749;DHT22;1382;52.142;11.618;2024-03-23T13:27:46;14.30;49.00
2749;DHT22;1382;52.142;11.618;2024-03-23T13:30:12;14.30;45.70
2749;DHT22;1382;52.142;11.618;2024-03-23T13:32:38;14.10;45.60
2749;DHT22;1382;52.142;11.618;2024-03-23T13:35:04;13.80;46.40
2749;DHT22;1382;52.142;11.618;2024-03-23T13:37:32;13.60;47.60
2749;DHT22;1382;52.142;11.618;2024-03-23T13:39:57;13.60;48.40
2749;DHT22;1382;52.142;11.618;2024-03-23T13:42:23;13.50;48.80
2749;DHT22;1382;52.142;11.618;2024-03-23T13:44:49;13.50;48.30
2749;DHT22;1382;52.142;11.618;2024-03-23T13:47:15;13.50;48.80
2749;DHT22;1382;52.142;11.618;2024-03-23T13:49:41;13.50;48.60
2749;DHT22;1382;52.142;11.618;2024-03-23T13:52:07;13.50;48.20
2749;DHT22;1382;52.142;11.618;2024-03-23T13:54:34;13.50;49.10
2749;DHT22;1382;52.142;11.618;2024-03-23T13:57:00;13.50;49.20
2749;DHT22;1382;52.142;11.618;2024-03-23T13:59:26;13.40;49.10
2749;DHT22;1382;52.142;11.618;2024-03-23T14:01:52;13.40;49.70
2749;DHT22;1382;52.142;11.618;2024-03-23T14:04:18;13.40;49.70
2749;DHT22;1382;52.142;11.618;2024-03-23T14:06:44;13.50;50.00
2749;DHT22;1382;52.142;11.618;2024-03-23T14:09:10;13.50;49.90
2749;DHT22;1382;52.142;11.618;2024-03-23T14:11:37;13.50;49.30
2749;DHT22;1382;52.142;11.618;2024-03-23T14:14:03;13.50;49.90
2749;DHT22;1382;52.142;11.618;2024-03-23T14:16:29;13.60;49.30
2749;DHT22;1382;52.142;11.618;2024-03-23T14:18:55;13.60;49.70
2749;DHT22;1382;52.142;11.618;2024-03-23T14:21:21;13.60;49.20
2749;DHT22;1382;52.142;11.618;2024-03-23T14:23:56;13.60;48.30
2749;DHT22;1382;52.142;11.618;2024-03-23T14:26:22;13.70;48.20
2749;DHT22;1382;52.142;11.618;2024-03-23T14:28:49;13.60;49.30
2749;DHT22;1382;52.142;11.618;2024-03-23T14:31:15;13.60;48.90
2749;DHT22;1382;52.142;11.618;2024-03-23T14:33:43;13.60;48.90
2749;DHT22;1382;52.142;11.618;2024-03-23T14:36:11;13.60;48.10
2749;DHT22;1382;52.142;11.618;2024-03-23T14:38:36;13.60;48.70
2749;DHT22;1382;52.142;11.618;2024-03-23T14:41:02;13.50;48.90
2749;DHT22;1382;52.142;11.618;2024-03-23T14:43:28;13.40;48.60
2749;DHT22;1382;52.142;11.618;2024-03-23T14:46:11;13.30;49.90
2749;DHT22;1382;52.142;11.618;2024-03-23T14:48:37;13.30;49.40
2749;DHT22;1382;52.142;11.618;2024-03-23T14:51:03;13.20;49.50
2749;DHT22;1382;52.142;11.618;2024-03-23T14:53:29;13.20;50.30
2749;DHT22;1382;52.142;11.618;2024-03-23T14:55:55;13.30;50.80
2749;DHT22;1382;52.142;11.618;2024-03-23T14:58:21;13.30;50.30
2749;DHT22;1382;52.142;11.618;2024-03-23T15:00:47;13.30;50.30
2749;DHT22;1382;52.142;11.618;2024-03-23T15:03:15;13.30;50.80
2749;DHT22;1382;52.142;11.618;2024-03-23T15:05:41;13.30;50.60
2749;DHT22;1382;52.142;11.618;2024-03-23T15:08:07;13.20;50.60
2749;DHT22;1382;52.142;11.618;2024-03-23T15:10:33;13.20;50.90
2749;DHT22;1382;52.142;11.618;2024-03-23T15:12:59;13.20;51.20
2749;DHT22;1382;52.142;11.618;2024-03-23T15:15:25;13.20;51.00
2749;DHT22;1382;52.142;11.618;2024-03-23T15:17:51;13.20;50.90
2749;DHT22;1382;52.142;11.618;2024-03-23T15:20:18;13.30;51.10
2749;DHT22;1382;52.142;11.618;2024-03-23T15:22:44;13.20;50.70
2749;DHT22;1382;52.142;11.618;2024-03-23T15:25:13;13.30;51.00
2749;DHT22;1382;52.142;11.618;2024-03-23T15:27:39;13.20;51.20
2749;DHT22;1382;52.142;11.618;2024-03-23T15:30:06;13.30;51.10
2749;DHT22;1382;52.142;11.618;2024-03-23T15:32:32;13.20;51.50
2749;DHT22;1382;52.142;11.618;2024-03-23T15:34:58;13.20;51.70
2749;DHT22;1382;52.142;11.618;2024-03-23T15:37:26;13.20;51.50
2749;DHT22;1382;52.142;11.618;2024-03-23T15:40:04;13.20;52.20
2749;DHT22;1382;52.142;11.618;2024-03-23T15:42:30;13.30;52.40
2749;DHT22;1382;52.142;11.618;2024-03-23T15:44:56;13.30;52.70
2749;DHT22;1382;52.142;11.618;2024-03-23T15:47:28;13.30;52.60
2749;DHT22;1382;52.142;11.618;2024-03-23T15:49:54;13.40;52.40
2749;DHT22;1382;52.142;11.618;2024-03-23T15:52:20;13.40;52.40
2749;DHT22;1382;52.142;11.618;2024-03-23T15:54:47;13.40;52.40
2749;DHT22;1382;52.142;11.618;2024-03-23T15:57:13;13.50;52.30
2749;DHT22;1382;52.142;11.618;2024-03-23T15:59:40;13.50;52.20
2749;DHT22;1382;52.142;11.618;2024-03-23T16:02:06;13.50;52.10
2749;DHT22;1382;52.142;11.618;2024-03-23T16:04:32;13.50;51.70
2749;DHT22;1382;52.142;11.618;2024-03-23T16:06:58;13.50;51.50
2749;DHT22;1382;52.142;11.618;2024-03-23T16:09:24;13.50;51.30
2749;DHT22;1382;52.142;11.618;2024-03-23T16:11:51;13.50;51.70
2749;DHT22;1382;52.142;11.618;2024-03-23T16:14:17;13.50;51.50
2749;DHT22;1382;52.142;11.618;2024-03-23T16:16:43;13.50;50.80
2749;DHT22;1382;52.142;11.618;2024-03-23T16:19:08;13.40;51.10
2749;DHT22;1382;52.142;11.618;2024-03-23T16:21:34;13.40;50.90
2749;DHT22;1382;52.142;11.618;2024-03-23T16:24:00;13.30;51.00
2749;DHT22;1382;52.142;11.618;2024-03-23T16:26:26;13.30;51.30
2749;DHT22;1382;52.142;11.618;2024-03-23T16:28:53;13.20;50.90
2749;DHT22;1382;52.142;11.618;2024-03-23T16:31:19;13.20;50.60
2749;DHT22;1382;52.142;11.618;2024-03-23T16:33:45;13.10;49.80
2749;DHT22;1382;52.142;11.618;2024-03-23T16:36:11;13.00;50.00
2749;DHT22;1382;52.142;11.618;2024-03-23T16:38:38;13.00;50.30
2749;DHT22;1382;52.142;11.618;2024-03-23T16:41:05;13.00;49.90
2749;DHT22;1382;52.142;11.618;2024-03-23T16:43:32;13.00;49.80
2749;DHT22;1382;52.142;11.618;2024-03-23T16:46:04;12.90;50.00
2749;DHT22;1382;52.142;11.618;2024-03-23T16:48:31;12.90;49.60
2749;DHT22;1382;52.142;11.618;2024-03-23T16:50:59;12.80;50.00
2749;DHT22;1382;52.142;11.618;2024-03-23T16:53:25;12.80;50.00
2749;DHT22;1382;52.142;11.618;2024-03-23T16:55:55;12.70;49.50
2749;DHT22;1382;52.142;11.618;2024-03-23T16:58:21;12.60;49.20
2749;DHT22;1382;52.142;11.618;2024-03-23T17:00:47;12.60;50.70
2749;DHT22;1382;52.142;11.618;2024-03-23T17:03:14;12.50;50.20
2749;DHT22;1382;52.142;11.618;2024-03-23T17:05:40;12.50;50.30
2749;DHT22;1382;52.142;11.618;2024-03-23T17:08:06;12.50;50.20
2749;DHT22;1382;52.142;11.618;2024-03-23T17:10:32;12.50;50.40
2749;DHT22;1382;52.142;11.618;2024-03-23T17:12:58;12.50;50.40
2749;DHT22;1382;52.142;11.618;2024-03-23T17:15:24;12.50;50.80
2749;DHT22;1382;52.142;11.618;2024-03-23T17:17:50;12.50;50.80
2749;DHT22;1382;52.142;11.618;2024-03-23T17:20:17;12.50;50.70
2749;DHT22;1382;52.142;11.618;2024-03-23T17:22:43;12.50;50.80
2749;DHT22;1382;52.142;11.618;2024-03-23T17:25:08;12.50;50.80
2749;DHT22;1382;52.142;11.618;2024-03-23T17:27:34;12.50;50.50
2749;DHT22;1382;52.142;11.618;2024-03-23T17:30:00;12.50;50.60
2749;DHT22;1382;52.142;11.618;2024-03-23T17:32:27;12.50;50.50
2749;DHT22;1382;52.142;11.618;2024-03-23T17:34:53;12.40;50.70
2749;DHT22;1382;52.142;11.618;2024-03-23T17:37:20;12.40;50.90
2749;DHT22;1382;52.142;11.618;2024-03-23T17:39:46;12.40;50.80
2749;DHT22;1382;52.142;11.618;2024-03-23T17:42:12;12.30;50.70
2749;DHT22;1382;52.142;11.618;2024-03-23T17:44:37;12.20;50.50
2749;DHT22;1382;52.142;11.618;2024-03-23T17:47:03;12.20;50.80
2749;DHT22;1382;52.142;11.618;2024-03-23T17:49:29;12.20;50.90
2749;DHT22;1382;52.142;11.618;2024-03-23T17:51:58;12.10;50.60
2749;DHT22;1382;52.142;11.618;2024-03-23T17:54:27;12.10;50.70
2749;DHT22;1382;52.142;11.618;2024-03-23T17:56:53;12.10;50.50
2749;DHT22;1382;52.142;11.618;2024-03-23T17:59:20;12.00;50.40
2749;DHT22;1382;52.142;11.618;2024-03-23T18:01:49;12.00;50.70
2749;DHT22;1382;52.142;11.618;2024-03-23T18:04:15;11.90;50.80
2749;DHT22;1382;52.142;11.618;2024-03-23T18:06:40;11.90;51.10
2749;DHT22;1382;52.142;11.618;2024-03-23T18:09:06;11.80;50.60
2749;DHT22;1382;52.142;11.618;2024-03-23T18:11:33;12.00;51.00
2749;DHT22;1382;52.142;11.618;2024-03-23T18:13:59;11.90;50.90
2749;DHT22;1382;52.142;11.618;2024-03-23T18:16:25;11.80;50.60
2749;DHT22;1382;52.142;11.618;2024-03-23T18:18:51;11.70;50.80
2749;DHT22;1382;52.142;11.618;2024-03-23T18:21:17;11.70;50.90
2749;DHT22;1382;52.142;11.618;2024-03-23T18:23:45;11.70;50.80
2749;DHT22;1382;52.142;11.618;2024-03-23T18:26:11;11.60;50.80
2749;DHT22;1382;52.142;11.618;2024-03-23T18:28:38;11.60;50.90
2749;DHT22;1382;52.142;11.618;2024-03-23T18:31:04;11.50;51.10
2749;DHT22;1382;52.142;11.618;2024-03-23T18:33:34;11.50;51.00
2749;DHT22;1382;52.142;11.618;2024-03-23T18:36:01;11.40;51.10
2749;DHT22;1382;52.142;11.618;2024-03-23T18:38:27;11.40;51.10
2749;DHT22;1382;52.142;11.618;2024-03-23T18:40:53;11.40;51.30
2749;DHT22;1382;52.142;11.618;2024-03-23T18:43:19;11.30;51.30
2749;DHT22;1382;52.142;11.618;2024-03-23T18:45:49;11.30;51.40
2749;DHT22;1382;52.142;11.618;2024-03-23T18:48:15;11.20;51.40
2749;DHT22;1382;52.142;11.618;2024-03-23T18:50:41;11.20;51.50
2749;DHT22;1382;52.142;11.618;2024-03-23T18:53:07;11.20;51.30
2749;DHT22;1382;52.142;11.618;2024-03-23T18:55:33;11.10;51.40
2749;DHT22;1382;52.142;11.618;2024-03-23T18:57:59;11.00;51.90
2749;DHT22;1382;52.142;11.618;2024-03-23T19:00:25;10.90;51.70
2749;DHT22;1382;52.142;11.618;2024-03-23T19:02:52;10.90;52.00
2749;DHT22;1382;52.142;11.618;2024-03-23T19:05:18;10.90;51.90
2749;DHT22;1382;52.142;11.618;2024-03-23T19:07:44;10.90;52.20
2749;DHT22;1382;52.142;11.618;2024-03-23T19:10:10;10.80;51.90
2749;DHT22;1382;52.142;11.618;2024-03-23T19:12:36;10.80;52.10
2749;DHT22;1382;52.142;11.618;2024-03-23T19:15:02;10.80;52.20
2749;DHT22;1382;52.142;11.618;2024-03-23T19:17:28;10.70;52.00
2749;DHT22;1382;52.142;11.618;2024-03-23T19:19:55;10.70;52.00
2749;DHT22;1382;52.142;11.618;2024-03-23T19:22:21;10.70;52.20
2749;DHT22;1382;52.142;11.618;2024-03-23T19:24:46;10.70;52.20